createdAt,value
2022-11-05T00:02:01.541Z,9.43
2022-11-05T00:04:50.030Z,8.60
2022-11-05T00:07:45.413Z,9.00
2022-11-05T00:10:20.546Z,8.20
2022-11-05T00:13:06.834Z,9.47
2022-11-05T00:15:53.221Z,8.70
2022-11-05T00:18:22.060Z,8.93
2022-11-05T00:20:50.921Z,10.30
2022-11-05T00:23:38.765Z,9.67
2022-11-05T00:26:09.931Z,9.93
2022-11-05T00:28:40.977Z,10.13
2022-11-05T00:31:11.907Z,10.33
2022-11-05T00:33:41.154Z,11.07
2022-11-05T00:36:11.642Z,11.03
2022-11-05T00:38:41.701Z,10.67
2022-11-05T00:41:10.504Z,10.50
2022-11-05T00:43:56.157Z,10.23
2022-11-05T00:46:24.829Z,10.50
2022-11-05T00:49:11.083Z,10.17
2022-11-05T00:51:39.848Z,10.67
2022-11-05T00:54:10.125Z,10.00
2022-11-05T00:56:38.786Z,9.50
2022-11-05T00:59:07.830Z,9.80
2022-11-05T01:01:36.689Z,9.93
2022-11-05T01:04:05.914Z,9.47
2022-11-05T01:06:34.626Z,9.20
2022-11-05T01:09:03.401Z,9.03
2022-11-05T01:11:37.372Z,9.33
2022-11-05T01:14:09.012Z,9.03
2022-11-05T01:16:38.053Z,9.17
2022-11-05T01:19:07.768Z,8.30
2022-11-05T01:21:36.467Z,8.63
2022-11-05T01:24:05.837Z,8.70
2022-11-05T01:26:36.006Z,8.37
2022-11-05T01:29:04.717Z,8.00
2022-11-05T01:31:33.458Z,9.17
2022-11-05T01:34:02.664Z,9.20
2022-11-05T01:36:31.406Z,8.43
2022-11-05T01:39:00.054Z,8.83
2022-11-05T01:41:28.823Z,9.17
2022-11-05T01:44:00.676Z,8.93
2022-11-05T01:46:35.444Z,8.23
2022-11-05T01:49:11.954Z,9.23
2022-11-05T01:51:41.517Z,8.70
2022-11-05T01:54:14.547Z,8.63
2022-11-05T01:56:47.667Z,8.40
2022-11-05T01:59:24.135Z,8.40
2022-11-05T02:01:53.500Z,8.47
2022-11-05T02:04:29.195Z,8.20
2022-11-05T02:06:58.226Z,8.47
2022-11-05T02:09:32.298Z,8.77
2022-11-05T02:12:01.196Z,9.13
2022-11-05T02:14:31.344Z,9.07
2022-11-05T02:17:06.606Z,8.70
2022-11-05T02:20:07.479Z,8.43
2022-11-05T02:23:11.548Z,8.80
2022-11-05T02:26:25.099Z,8.80
2022-11-05T02:29:26.645Z,8.50
2022-11-05T02:32:02.955Z,8.77
2022-11-05T02:34:41.643Z,8.70
2022-11-05T02:37:17.734Z,9.30
2022-11-05T02:39:52.551Z,9.00
2022-11-05T02:42:31.238Z,8.77
2022-11-05T02:45:07.609Z,8.53
2022-11-05T02:47:45.645Z,8.40
2022-11-05T02:50:24.942Z,8.27
2022-11-05T02:53:02.021Z,8.23
2022-11-05T02:55:35.689Z,7.83
2022-11-05T02:58:05.332Z,8.63
2022-11-05T03:00:43.757Z,8.33
2022-11-05T03:03:18.431Z,8.03
2022-11-05T03:05:59.613Z,7.83
2022-11-05T03:08:40.048Z,7.80
2022-11-05T03:11:15.579Z,8.00
2022-11-05T03:13:53.823Z,8.43
2022-11-05T03:16:30.826Z,8.40
2022-11-05T03:19:09.406Z,8.30
2022-11-05T03:21:48.786Z,7.77
2022-11-05T03:24:21.949Z,8.87
2022-11-05T03:26:56.913Z,8.13
2022-11-05T03:29:30.404Z,8.83
2022-11-05T03:32:02.026Z,8.20
2022-11-05T03:34:35.245Z,8.03
2022-11-05T03:37:07.646Z,8.07
2022-11-05T03:39:41.529Z,8.10
2022-11-05T03:42:14.022Z,8.40
2022-11-05T03:44:47.481Z,8.57
2022-11-05T03:47:20.391Z,8.40
2022-11-05T03:49:57.191Z,7.67
2022-11-05T03:52:31.596Z,7.90
2022-11-05T03:55:00.908Z,8.80
2022-11-05T03:57:33.381Z,8.23
2022-11-05T04:00:02.388Z,7.97
2022-11-05T04:02:40.885Z,7.90
2022-11-05T04:05:09.862Z,8.20
2022-11-05T04:07:57.618Z,7.87
2022-11-05T04:10:43.878Z,8.33
2022-11-05T04:13:28.012Z,8.50
2022-11-05T04:16:15.689Z,8.63
2022-11-05T04:18:45.160Z,8.40
2022-11-05T04:21:31.142Z,8.57
2022-11-05T04:24:10.323Z,9.10
2022-11-05T04:26:40.846Z,8.80
2022-11-05T04:29:27.524Z,8.90
2022-11-05T04:31:56.741Z,9.27
2022-11-05T04:34:25.482Z,10.20
2022-11-05T04:36:54.541Z,9.43
2022-11-05T04:39:24.770Z,9.83
2022-11-05T04:41:53.563Z,10.30
2022-11-05T04:44:22.347Z,10.50
2022-11-05T04:46:50.926Z,11.90
2022-11-05T04:49:19.597Z,11.77
2022-11-05T04:51:48.357Z,12.70
2022-11-05T04:54:17.921Z,11.90
2022-11-05T04:56:48.067Z,13.13
2022-11-05T04:59:16.692Z,12.43
2022-11-05T05:01:45.414Z,11.97
2022-11-05T05:04:14.725Z,13.37
2022-11-05T05:06:43.398Z,11.80
2022-11-05T05:09:12.152Z,13.27
2022-11-05T05:11:41.207Z,13.90
2022-11-05T05:14:11.688Z,13.53
2022-11-05T05:16:40.427Z,13.17
2022-11-05T05:19:09.005Z,13.23
2022-11-05T05:21:39.671Z,13.13
2022-11-05T05:24:12.012Z,14.23
2022-11-05T05:26:42.748Z,13.77
2022-11-05T05:29:13.850Z,13.90
2022-11-05T05:31:42.956Z,14.00
2022-11-05T05:34:13.610Z,13.43
2022-11-05T05:36:42.419Z,14.17
2022-11-05T05:39:11.551Z,13.83
2022-11-05T05:41:40.300Z,13.90
2022-11-05T05:44:09.490Z,13.53
2022-11-05T05:46:39.799Z,13.87
2022-11-05T05:49:12.340Z,13.73
2022-11-05T05:51:41.813Z,14.00
2022-11-05T05:54:11.913Z,14.03
2022-11-05T05:56:40.605Z,14.50
2022-11-05T05:59:09.710Z,14.70
2022-11-05T06:01:40.013Z,15.30
2022-11-05T06:04:09.030Z,14.80
2022-11-05T06:06:37.246Z,17.35
2022-11-05T06:12:22.083Z,14.63
2022-11-05T06:14:50.348Z,13.50
2022-11-05T06:17:19.934Z,14.40
2022-11-05T06:19:48.212Z,13.77
2022-11-05T06:22:16.469Z,15.07
2022-11-05T06:24:44.628Z,14.33
2022-11-05T06:27:12.824Z,14.37
2022-11-05T06:29:41.033Z,14.00
2022-11-05T06:32:09.258Z,14.00
2022-11-05T06:34:38.863Z,14.50
2022-11-05T06:37:07.063Z,13.80
2022-11-05T06:39:35.845Z,14.07
2022-11-05T06:42:18.084Z,14.67
2022-11-05T06:44:48.344Z,12.47
2022-11-05T06:47:16.519Z,13.33
2022-11-05T06:49:49.047Z,12.63
2022-11-05T06:52:17.740Z,12.33
2022-11-05T06:54:46.508Z,12.50
2022-11-05T06:57:14.952Z,12.73
2022-11-05T06:59:44.026Z,12.17
2022-11-05T07:02:14.104Z,12.00
2022-11-05T07:04:42.807Z,12.30
2022-11-05T07:07:12.390Z,13.17
2022-11-05T07:09:43.059Z,11.97
2022-11-05T07:12:11.293Z,12.50
2022-11-05T07:14:40.131Z,11.57
2022-11-05T07:28:25.244Z,13.97
2022-11-05T07:30:54.191Z,13.27
2022-11-05T07:33:22.756Z,13.37
2022-11-05T07:35:51.249Z,13.60
2022-11-05T07:38:20.368Z,13.77
2022-11-05T07:40:48.939Z,14.67
2022-11-05T07:43:17.831Z,14.03
2022-11-05T07:45:48.198Z,14.47
2022-11-05T07:48:16.769Z,13.70
2022-11-05T07:50:45.384Z,13.43
2022-11-05T07:53:15.648Z,13.90
2022-11-05T07:55:46.126Z,12.80
2022-11-05T07:58:15.302Z,13.07
2022-11-05T08:00:44.056Z,12.30
2022-11-05T08:03:16.194Z,11.43
2022-11-05T08:05:47.212Z,11.97
2022-11-05T08:08:17.976Z,11.77
2022-11-05T08:10:46.895Z,12.40
2022-11-05T08:13:16.333Z,12.43
2022-11-05T08:15:45.231Z,13.33
2022-11-05T08:18:17.465Z,13.03
2022-11-05T08:20:47.945Z,11.97
2022-11-05T08:23:16.627Z,12.53
2022-11-05T08:25:45.193Z,13.03
2022-11-05T08:28:14.295Z,13.20
2022-11-05T08:30:43.116Z,13.03
2022-11-05T08:33:15.094Z,12.77
2022-11-05T08:35:43.934Z,12.53
2022-11-05T08:38:14.946Z,13.07
2022-11-05T08:40:44.757Z,13.07
2022-11-05T08:43:15.643Z,13.17
2022-11-05T08:45:44.199Z,12.23
2022-11-05T08:48:16.445Z,12.27
2022-11-05T08:50:45.993Z,12.07
2022-11-05T08:53:14.886Z,12.00
2022-11-05T08:55:44.008Z,12.50
2022-11-05T08:58:18.434Z,12.30
2022-11-05T09:00:49.651Z,12.17
2022-11-05T09:03:20.115Z,12.30
2022-11-05T09:05:48.687Z,12.43
2022-11-05T09:08:18.908Z,12.80
2022-11-05T09:10:49.963Z,12.53
2022-11-05T09:13:20.093Z,12.77
2022-11-05T09:15:49.418Z,12.90
2022-11-05T09:18:21.159Z,13.97
2022-11-05T09:20:49.920Z,12.80
2022-11-05T09:23:18.825Z,13.17
2022-11-05T09:25:47.933Z,13.20
2022-11-05T09:28:20.580Z,13.00
2022-11-05T09:30:51.446Z,13.30
2022-11-05T09:33:23.345Z,12.77
2022-11-05T09:35:53.563Z,12.23
2022-11-05T09:38:22.270Z,12.00
2022-11-05T09:40:58.880Z,12.70
2022-11-05T09:43:32.798Z,12.57
2022-11-05T09:46:08.523Z,12.43
2022-11-05T09:48:42.255Z,12.47
2022-11-05T09:51:19.378Z,12.63
2022-11-05T09:53:53.645Z,12.87
2022-11-05T09:56:25.570Z,13.50
2022-11-05T09:58:59.463Z,12.80
2022-11-05T10:01:31.935Z,12.50
2022-11-05T10:04:08.973Z,12.13
2022-11-05T10:06:50.096Z,12.20
2022-11-05T10:09:25.149Z,12.17
2022-11-05T10:12:03.740Z,12.47
2022-11-05T10:14:37.903Z,13.63
2022-11-05T10:17:12.152Z,13.10
2022-11-05T10:19:45.649Z,13.30
2022-11-05T10:22:16.952Z,12.87
2022-11-05T10:24:47.594Z,12.67
2022-11-05T10:27:19.871Z,13.07
2022-11-05T10:29:49.531Z,12.43
2022-11-05T10:32:26.617Z,11.63
2022-11-05T10:35:01.004Z,12.13
2022-11-05T10:37:30.558Z,12.03
2022-11-05T10:39:59.773Z,12.47
2022-11-05T10:42:50.747Z,11.73
2022-11-05T10:45:31.671Z,12.07
2022-11-05T10:48:14.520Z,11.77
2022-11-05T10:50:45.783Z,11.05
2022-11-05T10:53:17.866Z,12.27
2022-11-05T10:55:48.906Z,11.75
2022-11-05T10:58:22.972Z,11.82
2022-11-05T11:01:08.532Z,11.65
2022-11-05T11:03:42.632Z,12.07
2022-11-05T11:06:22.981Z,12.40
2022-11-05T11:08:53.185Z,13.23
2022-11-05T11:11:30.795Z,11.73
2022-11-05T11:14:06.125Z,11.73
2022-11-05T11:16:40.155Z,11.80
2022-11-05T11:19:26.785Z,11.77
2022-11-05T11:22:23.690Z,12.37
2022-11-05T11:24:54.173Z,12.23
2022-11-05T11:27:29.820Z,12.23
2022-11-05T11:30:00.153Z,12.23
2022-11-05T11:32:37.578Z,11.97
2022-11-05T11:35:07.955Z,11.60
2022-11-05T11:37:42.292Z,11.40
2022-11-05T11:40:18.168Z,12.33
2022-11-05T11:42:48.729Z,11.67
2022-11-05T11:45:19.892Z,11.87
2022-11-05T11:47:50.942Z,12.97
2022-11-05T11:50:37.971Z,12.13
2022-11-05T11:53:28.681Z,12.90
2022-11-05T11:56:00.375Z,12.20
2022-11-05T11:58:40.717Z,12.00
2022-11-05T12:01:49.188Z,11.57
2022-11-05T12:04:39.233Z,11.83
2022-11-05T12:07:24.228Z,11.50
2022-11-05T12:10:29.281Z,12.47
2022-11-05T12:13:16.547Z,11.63
2022-11-05T12:15:50.873Z,11.23
2022-11-05T12:18:28.385Z,11.67
2022-11-05T12:21:15.346Z,11.77
2022-11-05T12:24:11.662Z,11.83
2022-11-05T12:26:53.790Z,11.50
2022-11-05T12:29:36.262Z,10.97
2022-11-05T12:32:30.447Z,10.60
2022-11-05T12:35:05.551Z,10.90
2022-11-05T12:37:38.865Z,10.60
2022-11-05T12:40:20.962Z,10.37
2022-11-05T12:43:09.025Z,9.87
2022-11-05T12:45:51.903Z,9.67
2022-11-05T12:48:47.607Z,9.70
2022-11-05T12:51:29.862Z,9.80
2022-11-05T12:54:08.370Z,10.17
2022-11-05T12:56:42.615Z,9.27
2022-11-05T12:59:20.669Z,9.37
2022-11-05T13:01:53.767Z,10.10
2022-11-05T13:04:34.208Z,9.73
2022-11-05T13:07:06.698Z,9.23
2022-11-05T13:09:39.617Z,9.00
2022-11-05T13:12:12.292Z,8.90
2022-11-05T13:14:46.856Z,9.33
2022-11-05T13:17:20.818Z,9.57
2022-11-05T13:19:55.387Z,9.17
2022-11-05T13:22:32.038Z,9.73
2022-11-05T13:25:06.177Z,9.10
2022-11-05T13:27:50.073Z,8.00
2022-11-05T13:30:22.023Z,7.43
2022-11-05T13:33:01.945Z,7.47
2022-11-05T13:35:35.899Z,7.40
2022-11-05T13:38:27.028Z,6.97
2022-11-05T13:41:08.877Z,6.40
2022-11-05T13:43:49.249Z,6.27
2022-11-05T13:46:30.192Z,6.97
2022-11-05T13:49:26.620Z,6.93
2022-11-05T13:51:56.875Z,9.67
2022-11-05T13:55:01.244Z,9.27
2022-11-05T13:57:47.102Z,9.00
2022-11-05T14:00:20.299Z,9.00
2022-11-05T14:02:53.248Z,8.10
2022-11-05T14:05:28.288Z,8.77
2022-11-05T14:07:58.680Z,8.57
2022-11-05T14:10:37.814Z,8.33
2022-11-05T14:13:19.117Z,8.33
2022-11-05T14:16:09.562Z,8.50
2022-11-05T14:18:44.362Z,8.60
2022-11-05T14:21:47.514Z,8.77
2022-11-05T14:24:47.373Z,9.10
2022-11-05T14:27:34.547Z,8.17
2022-11-05T14:30:23.899Z,8.30
2022-11-05T14:32:53.226Z,9.10
2022-11-05T14:35:39.828Z,9.07
2022-11-05T14:38:21.417Z,8.90
2022-11-05T14:40:51.085Z,7.90
2022-11-05T14:43:25.027Z,8.33
2022-11-05T14:45:56.932Z,8.37
2022-11-05T14:48:35.353Z,8.23
2022-11-05T14:51:04.284Z,8.37
2022-11-05T14:53:38.215Z,8.50
2022-11-05T14:56:10.107Z,8.90
2022-11-05T14:58:40.049Z,8.90
2022-11-05T15:01:10.174Z,7.93
2022-11-05T15:04:04.285Z,8.10
2022-11-05T15:06:35.307Z,7.90
2022-11-05T15:09:27.955Z,8.73
2022-11-05T15:12:09.050Z,8.57
2022-11-05T15:14:43.003Z,8.30
2022-11-05T15:17:19.164Z,8.73
2022-11-05T15:19:49.202Z,8.30
2022-11-05T15:22:29.600Z,8.67
2022-11-05T15:25:00.826Z,7.93
2022-11-05T15:27:49.633Z,7.87
2022-11-05T15:30:20.143Z,8.70
2022-11-05T15:32:48.818Z,8.77
2022-11-05T15:35:23.643Z,9.20
2022-11-05T15:37:57.415Z,9.67
2022-11-05T15:40:33.489Z,9.57
2022-11-05T15:43:17.646Z,9.33
2022-11-05T15:46:02.661Z,9.47
2022-11-05T15:48:31.498Z,9.17
2022-11-05T15:51:00.276Z,9.90
2022-11-05T15:53:56.105Z,9.43
2022-11-05T15:56:29.624Z,10.20
2022-11-05T15:59:02.113Z,11.27
2022-11-05T16:01:34.139Z,10.47
2022-11-05T16:04:09.720Z,10.53
2022-11-05T16:06:40.778Z,10.60
2022-11-05T16:09:20.798Z,10.67
2022-11-05T16:11:54.455Z,11.17
2022-11-05T16:14:22.998Z,10.97
2022-11-05T16:16:51.570Z,11.27
2022-11-05T16:19:40.199Z,11.50
2022-11-05T16:22:09.476Z,10.73
2022-11-05T16:24:38.086Z,11.80
2022-11-05T16:27:08.281Z,11.37
2022-11-05T16:29:38.520Z,11.73
2022-11-05T16:32:14.629Z,11.37
2022-11-05T16:34:46.881Z,11.97
2022-11-05T16:37:17.455Z,12.17
2022-11-05T16:39:46.303Z,11.27
2022-11-05T16:42:48.726Z,12.60
2022-11-05T16:45:21.706Z,12.67
2022-11-05T16:47:50.817Z,12.33
2022-11-05T16:50:23.612Z,13.10
2022-11-05T16:52:52.220Z,13.50
2022-11-05T16:55:21.339Z,12.57
2022-11-05T16:57:52.298Z,13.37
2022-11-05T17:00:23.614Z,14.17
2022-11-05T17:02:52.249Z,14.43
2022-11-05T17:05:24.430Z,13.63
2022-11-05T17:07:53.247Z,14.30
2022-11-05T17:10:22.739Z,13.97
2022-11-05T17:12:51.711Z,13.87
2022-11-05T17:15:24.955Z,14.33
2022-11-05T17:17:54.705Z,14.10
2022-11-05T17:20:32.403Z,14.47
2022-11-05T17:23:03.938Z,14.30
2022-11-05T17:25:33.253Z,13.97
2022-11-05T17:28:01.701Z,14.40
2022-11-05T17:30:31.855Z,15.60
2022-11-05T17:33:00.383Z,14.20
2022-11-05T17:35:29.080Z,14.67
2022-11-05T17:37:57.583Z,14.40
2022-11-05T17:40:28.448Z,14.57
2022-11-05T17:42:57.139Z,13.73
2022-11-05T17:45:25.667Z,14.73
2022-11-05T17:47:55.560Z,14.57
2022-11-05T17:50:24.344Z,14.53
2022-11-05T17:52:52.862Z,15.03
2022-11-05T17:55:21.772Z,14.40
2022-11-05T17:57:53.258Z,15.70
2022-11-05T18:00:23.767Z,14.80
2022-11-05T18:02:55.331Z,14.37
2022-11-05T18:05:30.929Z,14.60
2022-11-05T18:07:59.998Z,14.70
2022-11-05T18:10:28.605Z,14.60
2022-11-05T18:12:57.190Z,14.33
2022-11-05T18:15:25.734Z,14.17
2022-11-05T18:17:55.656Z,15.20
2022-11-05T18:20:24.219Z,15.30
2022-11-05T18:22:52.876Z,15.70
2022-11-05T18:25:21.368Z,15.30
2022-11-05T18:27:49.851Z,15.70
2022-11-05T18:30:18.298Z,15.40
2022-11-05T18:32:47.801Z,15.83
2022-11-05T18:35:17.867Z,15.27
2022-11-05T18:37:46.440Z,14.67
2022-11-05T18:40:15.172Z,15.13
2022-11-05T18:42:43.888Z,14.73
2022-11-05T18:45:13.335Z,14.60
2022-11-05T18:47:41.873Z,15.90
2022-11-05T18:50:11.954Z,15.23
2022-11-05T18:52:41.889Z,14.80
2022-11-05T18:55:10.972Z,15.00
2022-11-05T18:57:39.738Z,15.00
2022-11-05T19:00:09.566Z,14.80
2022-11-05T19:02:38.131Z,14.47
2022-11-05T19:05:28.027Z,17.47
2022-11-05T19:07:57.732Z,15.77
2022-11-05T19:10:26.553Z,15.77
2022-11-05T19:12:55.182Z,15.47
2022-11-05T19:15:23.813Z,16.03
2022-11-05T19:17:52.331Z,17.73
2022-11-05T19:20:21.066Z,16.83
2022-11-05T19:22:49.690Z,16.97
2022-11-05T19:25:19.859Z,17.30
2022-11-05T19:27:48.364Z,17.50
2022-11-05T19:30:16.920Z,18.27
2022-11-05T19:32:45.363Z,17.37
2022-11-05T19:35:13.919Z,17.80
2022-11-05T19:37:42.292Z,17.13
2022-11-05T19:40:12.423Z,17.07
2022-11-05T19:42:42.299Z,17.07
2022-11-05T19:45:38.115Z,16.70
2022-11-05T19:48:00.407Z,16.03
2022-11-05T19:50:28.971Z,19.47
2022-11-05T19:52:57.438Z,17.20
2022-11-05T19:55:26.258Z,17.97
2022-11-05T19:57:56.237Z,17.17
2022-11-05T20:00:24.681Z,17.00
2022-11-05T20:02:53.378Z,17.77
2022-11-05T20:05:22.079Z,17.87
2022-11-05T20:07:53.043Z,16.53
2022-11-05T20:10:22.432Z,15.77
2022-11-05T20:12:50.944Z,15.57
2022-11-05T20:15:20.957Z,16.03
2022-11-05T20:17:51.269Z,15.13
2022-11-05T20:20:20.721Z,15.87
2022-11-05T20:22:49.228Z,15.47
2022-11-05T20:25:17.797Z,13.90
2022-11-05T20:27:46.404Z,14.80
2022-11-05T20:30:14.970Z,13.83
2022-11-05T20:32:45.239Z,13.67
2022-11-05T20:35:13.712Z,13.83
2022-11-05T20:37:42.197Z,14.13
2022-11-05T20:40:14.125Z,14.00
2022-11-05T20:42:43.020Z,13.03
2022-11-05T20:45:12.320Z,14.47
2022-11-05T20:47:40.887Z,14.03
2022-11-05T20:50:11.588Z,14.00
2022-11-05T20:52:40.535Z,12.57
2022-11-05T20:55:10.292Z,12.90
2022-11-05T20:57:38.973Z,13.97
2022-11-05T21:00:09.181Z,12.87
2022-11-05T21:02:39.831Z,13.20
2022-11-05T21:05:10.869Z,13.33
2022-11-05T21:07:39.356Z,13.03
2022-11-05T21:10:08.539Z,13.30
2022-11-05T21:12:37.022Z,12.03
2022-11-05T21:15:06.288Z,12.73
2022-11-05T21:17:34.750Z,13.03
2022-11-05T21:20:03.285Z,12.60
2022-11-05T21:22:33.231Z,13.67
2022-11-05T21:25:01.731Z,12.57
2022-11-05T21:27:30.224Z,13.03
2022-11-05T21:29:58.813Z,12.53
2022-11-05T21:32:27.305Z,12.40
2022-11-05T21:34:55.746Z,12.90
2022-11-05T21:37:24.199Z,12.63
2022-11-05T21:39:54.894Z,12.73
2022-11-05T21:42:23.346Z,12.60
2022-11-05T21:44:56.313Z,13.47
2022-11-05T21:47:29.465Z,12.80
2022-11-05T21:49:58.038Z,11.70
2022-11-05T21:52:46.480Z,12.87
2022-11-05T21:55:36.394Z,13.07
2022-11-05T21:58:30.492Z,13.10
2022-11-05T22:00:59.212Z,13.23
2022-11-05T22:03:27.691Z,12.77
2022-11-05T22:05:58.346Z,13.00
2022-11-05T22:08:27.294Z,14.97
2022-11-05T22:10:57.234Z,14.13
2022-11-05T22:13:25.747Z,13.40
2022-11-05T22:15:57.243Z,14.30
2022-11-05T22:18:25.705Z,14.13
2022-11-05T22:20:54.107Z,14.53
2022-11-05T22:23:22.670Z,15.47
2022-11-05T22:25:51.078Z,14.87
2022-11-05T22:28:21.884Z,15.93
2022-11-05T22:30:50.347Z,17.03
2022-11-05T22:33:18.741Z,16.87
2022-11-05T22:35:47.312Z,16.33
2022-11-05T22:38:15.816Z,17.57
2022-11-05T22:40:44.493Z,18.40
2022-11-05T22:43:12.958Z,17.60
2022-11-05T22:45:43.964Z,17.23
2022-11-05T22:48:12.691Z,19.40
2022-11-05T22:50:41.480Z,18.97
2022-11-05T22:53:09.968Z,18.17
2022-11-05T22:55:40.681Z,18.67
2022-11-05T22:58:09.208Z,18.53
2022-11-05T23:00:39.944Z,16.83
2022-11-05T23:03:09.958Z,17.47
2022-11-05T23:05:38.505Z,16.37
2022-11-05T23:08:24.589Z,16.93
2022-11-05T23:11:22.730Z,16.27
2022-11-05T23:13:51.191Z,16.60
2022-11-05T23:16:36.668Z,18.43
2022-11-05T23:19:23.806Z,16.47
2022-11-05T23:22:09.546Z,16.63
2022-11-05T23:24:38.759Z,17.57
2022-11-05T23:27:07.317Z,16.23
2022-11-05T23:29:36.257Z,16.20
2022-11-05T23:32:21.930Z,16.43
2022-11-05T23:34:52.050Z,17.30
2022-11-05T23:37:38.169Z,15.97
2022-11-05T23:40:09.092Z,18.40
2022-11-05T23:42:55.156Z,17.67
2022-11-05T23:45:40.739Z,17.33
2022-11-05T23:48:19.397Z,18.13
2022-11-05T23:50:52.882Z,16.43
2022-11-05T23:53:21.662Z,17.23
2022-11-05T23:55:50.344Z,16.40
2022-11-05T23:58:19.658Z,17.03
